Rawalakot Weather



Rawalakot's Current Weather

Temprature 19.11o overcast clouds

overcast clouds

Rain: 0 %

Min Temprature19.11o
Max Temprature19.11o
Humidity41
Wind Speed2.07 m/h
Sun Rise04:58:41
Sun Set19:05:10
Current Time: 24-May-2022 08:52:01
Lat/Lon: 33.858, 73.7604




Rawalakot's Geo Location



Rawalakot's Weather Forecast

Time Overall Temp Min Temp Max Temp Humidity Wind Speed Rain
24-May-2022 (Tue)
11:00:00 overcast clouds 18.950 18.950 21.980 42 3.16 m/h 0 %
14:00:00 broken clouds 21.280 21.280 23.200 35 3.14 m/h 0 %
17:00:00 broken clouds 22.280 22.280 22.280 32 1.79 m/h 0 %
20:00:00 scattered clouds 17.900 17.900 17.900 42 0.7 m/h 0 %
23:00:00 few clouds 15.770 15.770 15.770 47 2.44 m/h 0 %
25-May-2022 (Wed)
02:00:00 clear sky 15.010 15.010 15.010 48 2.57 m/h 0 %
05:00:00 clear sky 14.310 14.310 14.310 51 2.79 m/h 0 %
08:00:00 clear sky 22.290 22.290 22.290 33 0.3 m/h 0 %
11:00:00 clear sky 26.180 26.180 26.180 25 2.95 m/h 0 %
14:00:00 clear sky 28.440 28.440 28.440 21 4.02 m/h 0 %
17:00:00 clear sky 27.720 27.720 27.720 21 3.48 m/h 0 %
20:00:00 clear sky 20.950 20.950 20.950 32 0.53 m/h 0 %
23:00:00 clear sky 19.270 19.270 19.270 36 2.76 m/h 0 %
26-May-2022 (Thu)
02:00:00 clear sky 18.250 18.250 18.250 38 2.5 m/h 0 %
05:00:00 clear sky 17.570 17.570 17.570 40 2.81 m/h 0 %
08:00:00 clear sky 25.830 25.830 25.830 25 0.52 m/h 0 %
11:00:00 clear sky 29.660 29.660 29.660 20 3.65 m/h 0 %
14:00:00 clear sky 31.380 31.380 31.380 17 4.38 m/h 0 %
17:00:00 clear sky 30.710 30.710 30.710 17 3.22 m/h 0 %
20:00:00 few clouds 23.660 23.660 23.660 27 1.06 m/h 0 %
23:00:00 clear sky 21.630 21.630 21.630 31 2.84 m/h 0 %
27-May-2022 (Fri)
02:00:00 clear sky 20.400 20.400 20.400 33 2.88 m/h 0 %
05:00:00 clear sky 19.510 19.510 19.510 35 3.21 m/h 0 %
08:00:00 clear sky 28.710 28.710 28.710 20 1.01 m/h 0 %
11:00:00 clear sky 32.290 32.290 32.290 15 3.89 m/h 0 %
14:00:00 clear sky 33.730 33.730 33.730 13 6.41 m/h 0 %
17:00:00 clear sky 32.730 32.730 32.730 12 4.93 m/h 0 %
20:00:00 clear sky 25.100 25.100 25.100 19 1.36 m/h 0 %
23:00:00 clear sky 23.510 23.510 23.510 22 3.23 m/h 0 %
28-May-2022 (Sat)
02:00:00 few clouds 21.490 21.490 21.490 30 3.51 m/h 0 %
05:00:00 few clouds 20.500 20.500 20.500 34 3.64 m/h 0 %
08:00:00 few clouds 29.690 29.690 29.690 19 1.05 m/h 0 %
11:00:00 few clouds 32.590 32.590 32.590 15 3.27 m/h 0 %
14:00:00 overcast clouds 33.080 33.080 33.080 14 3.74 m/h 0 %
17:00:00 light rain 21.820 21.820 21.820 50 6.62 m/h 53 %
20:00:00 light rain 18.330 18.330 18.330 68 5.48 m/h 117 %
23:00:00 overcast clouds 17.340 17.340 17.340 64 5.27 m/h 0 %
29-May-2022 (Sun)
02:00:00 broken clouds 16.310 16.310 16.310 66 5.06 m/h 0 %
05:00:00 overcast clouds 16.800 16.800 16.800 59 4.37 m/h 0 %
08:00:00 overcast clouds 25.770 25.770 25.770 31 1.67 m/h 0 %

Famous Cities (61)